Robins Air Force Base
KWRB : now visible

Airfield :











YOU CAN JOIN US ON...

 
LOGIN :

Register | Disclaimer

   EN    FR    IT 

 









Legend :    VFR   Marginal VFR   IFR   Intensive IFR   Very Intensive IFR
Visi :
Ceiling :
>= 8 km
>= 3000ft
5 to 8 km
1000 to 3000 ft
1500m to 5 km
500 to 1000 ft
800 to 1500m
200 to 500 ft
< 800m
< 200 ft
Symbols :   Thunderstorms  Fog  Heavy snow  Heavy precipitations  Wind > 20 kt






- Airport Elevation : 294 ft


KWRB - Robins Air Force Base

CURRENT METAR :
  • 091056Z 34004KT 10SM SCT160 23/23 A2990 RMK AO2A SLP125 T02310227 $

EXPIRED METARs :
  • 090956Z 34003KT 10SM FEW160 23/23 A2989 RMK AO2A SLP121 T02280226 $
  • 090856Z 34004KT 10SM CLR 23/23 A2988 RMK AO2A SLP118 T02330226 55002 $

TAF TAF KWRB
Valid from the 09 at 05:00 until the 10 at 11:00 UTC


090500Z 0905/1011 VRB06KT 9999 SCT060 SCT100 QNH2990INS
BECMG 0908/0909 VRB03KT 9999 SCT030 BKN250 QNH2992INS
BECMG 0917/0918 VRB06KT 9999 -SHRA SCT030 BKN250 QNH2987INS
BECMG 0923/0924 VRB06KT 9999 NSW SCT030 QNH2990INS TX31/0921Z TN23/0910Z
KZTL FIR / North America



MET'MAP, your aeronautical weather chart ! - Copyright ORBIFLY December 2007 - Disclaimer

ORBIFLY MET'MAP TEAM :

Programming & Development : Alexandra Zaïnal
Concept & original design : Baudouin d'Aumeries
Assistance for programming : Marc-Olivier Méhu
Technical & hardware support : Manuel Goepfert

Contact : metmap@orbifly.com




SOURCES & CREDITS :

   NOAA       Earth
Advisory